sensor_id;sensor_type;location;lat;lon;timestamp;P1;durP1;ratioP1;P2;durP2;ratioP2
42662;SDS011;44330;51.360;6.686;2023-02-25T00:00:41;26.10;;;3.65;;
42662;SDS011;44330;51.360;6.686;2023-02-25T00:03:08;21.63;;;2.88;;
42662;SDS011;44330;51.360;6.686;2023-02-25T00:05:38;24.02;;;3.33;;
42662;SDS011;44330;51.360;6.686;2023-02-25T00:08:04;19.67;;;3.45;;
42662;SDS011;44330;51.360;6.686;2023-02-25T00:10:31;29.50;;;4.78;;
42662;SDS011;44330;51.360;6.686;2023-02-25T00:12:57;21.20;;;3.75;;
42662;SDS011;44330;51.360;6.686;2023-02-25T00:15:23;33.47;;;4.85;;
42662;SDS011;44330;51.360;6.686;2023-02-25T00:17:48;20.50;;;3.33;;
42662;SDS011;44330;51.360;6.686;2023-02-25T00:20:14;19.05;;;4.32;;
42662;SDS011;44330;51.360;6.686;2023-02-25T00:22:41;16.35;;;3.20;;
42662;SDS011;44330;51.360;6.686;2023-02-25T00:25:07;16.08;;;3.95;;
42662;SDS011;44330;51.360;6.686;2023-02-25T00:27:33;20.58;;;2.80;;
42662;SDS011;44330;51.360;6.686;2023-02-25T00:29:59;16.67;;;2.58;;
42662;SDS011;44330;51.360;6.686;2023-02-25T00:32:25;18.45;;;2.75;;
42662;SDS011;44330;51.360;6.686;2023-02-25T00:34:51;18.50;;;2.47;;
42662;SDS011;44330;51.360;6.686;2023-02-25T00:37:17;27.70;;;3.20;;
42662;SDS011;44330;51.360;6.686;2023-02-25T00:39:42;14.77;;;3.30;;
42662;SDS011;44330;51.360;6.686;2023-02-25T00:42:08;16.17;;;2.70;;
42662;SDS011;44330;51.360;6.686;2023-02-25T00:44:35;17.65;;;2.88;;
42662;SDS011;44330;51.360;6.686;2023-02-25T00:47:01;13.25;;;2.72;;
42662;SDS011;44330;51.360;6.686;2023-02-25T00:49:28;20.15;;;3.13;;
42662;SDS011;44330;51.360;6.686;2023-02-25T00:51:53;15.23;;;2.60;;
42662;SDS011;44330;51.360;6.686;2023-02-25T00:54:20;13.60;;;2.40;;
42662;SDS011;44330;51.360;6.686;2023-02-25T00:56:46;15.60;;;2.63;;
42662;SDS011;44330;51.360;6.686;2023-02-25T00:59:12;16.35;;;2.92;;
42662;SDS011;44330;51.360;6.686;2023-02-25T01:01:38;15.70;;;2.15;;
42662;SDS011;44330;51.360;6.686;2023-02-25T01:04:04;18.50;;;2.67;;
42662;SDS011;44330;51.360;6.686;2023-02-25T01:06:31;23.10;;;2.90;;
42662;SDS011;44330;51.360;6.686;2023-02-25T01:08:57;20.23;;;2.45;;
42662;SDS011;44330;51.360;6.686;2023-02-25T01:11:25;26.50;;;2.65;;
42662;SDS011;44330;51.360;6.686;2023-02-25T01:13:55;18.83;;;2.95;;
42662;SDS011;44330;51.360;6.686;2023-02-25T01:16:27;21.02;;;2.85;;
42662;SDS011;44330;51.360;6.686;2023-02-25T01:18:54;22.25;;;2.67;;
42662;SDS011;44330;51.360;6.686;2023-02-25T01:21:22;11.32;;;2.08;;
42662;SDS011;44330;51.360;6.686;2023-02-25T01:23:57;22.40;;;3.55;;
42662;SDS011;44330;51.360;6.686;2023-02-25T01:26:26;26.90;;;2.83;;
42662;SDS011;44330;51.360;6.686;2023-02-25T01:28:52;14.57;;;2.55;;
42662;SDS011;44330;51.360;6.686;2023-02-25T01:31:20;16.05;;;2.85;;
42662;SDS011;44330;51.360;6.686;2023-02-25T01:36:14;23.55;;;3.05;;
42662;SDS011;44330;51.360;6.686;2023-02-25T01:38:40;24.23;;;2.83;;
42662;SDS011;44330;51.360;6.686;2023-02-25T01:41:06;17.27;;;2.90;;
42662;SDS011;44330;51.360;6.686;2023-02-25T01:43:31;13.98;;;2.38;;
42662;SDS011;44330;51.360;6.686;2023-02-25T01:45:57;14.02;;;2.33;;
42662;SDS011;44330;51.360;6.686;2023-02-25T01:48:24;17.33;;;2.92;;
42662;SDS011;44330;51.360;6.686;2023-02-25T01:50:54;17.05;;;2.67;;
42662;SDS011;44330;51.360;6.686;2023-02-25T01:53:27;19.90;;;2.55;;
42662;SDS011;44330;51.360;6.686;2023-02-25T01:56:04;19.15;;;3.17;;
42662;SDS011;44330;51.360;6.686;2023-02-25T01:58:31;21.33;;;2.70;;
42662;SDS011;44330;51.360;6.686;2023-02-25T02:00:58;17.60;;;3.47;;
42662;SDS011;44330;51.360;6.686;2023-02-25T02:03:25;25.65;;;3.00;;
42662;SDS011;44330;51.360;6.686;2023-02-25T02:08:34;28.80;;;3.10;;
42662;SDS011;44330;51.360;6.686;2023-02-25T02:11:00;32.15;;;3.45;;
42662;SDS011;44330;51.360;6.686;2023-02-25T02:13:27;23.90;;;3.90;;
42662;SDS011;44330;51.360;6.686;2023-02-25T02:22:18;20.23;;;2.78;;
42662;SDS011;44330;51.360;6.686;2023-02-25T02:30:45;21.98;;;2.80;;
42662;SDS011;44330;51.360;6.686;2023-02-25T02:33:41;15.13;;;2.88;;
42662;SDS011;44330;51.360;6.686;2023-02-25T02:36:39;18.15;;;2.60;;
42662;SDS011;44330;51.360;6.686;2023-02-25T02:39:12;10.55;;;2.90;;
42662;SDS011;44330;51.360;6.686;2023-02-25T02:41:54;18.17;;;2.90;;
42662;SDS011;44330;51.360;6.686;2023-02-25T02:47:31;23.85;;;3.80;;
42662;SDS011;44330;51.360;6.686;2023-02-25T02:50:05;20.60;;;3.17;;
42662;SDS011;44330;51.360;6.686;2023-02-25T02:52:43;19.73;;;3.03;;
42662;SDS011;44330;51.360;6.686;2023-02-25T02:55:21;23.52;;;3.20;;
42662;SDS011;44330;51.360;6.686;2023-02-25T02:57:53;16.17;;;2.70;;
42662;SDS011;44330;51.360;6.686;2023-02-25T03:00:26;25.65;;;3.17;;
42662;SDS011;44330;51.360;6.686;2023-02-25T03:03:01;25.25;;;3.60;;
42662;SDS011;44330;51.360;6.686;2023-02-25T03:05:34;18.15;;;3.50;;
42662;SDS011;44330;51.360;6.686;2023-02-25T03:08:11;20.83;;;3.05;;
42662;SDS011;44330;51.360;6.686;2023-02-25T03:10:44;19.33;;;3.58;;
42662;SDS011;44330;51.360;6.686;2023-02-25T03:13:10;23.00;;;2.85;;
42662;SDS011;44330;51.360;6.686;2023-02-25T03:15:37;24.15;;;3.50;;
42662;SDS011;44330;51.360;6.686;2023-02-25T03:18:05;21.25;;;2.60;;
42662;SDS011;44330;51.360;6.686;2023-02-25T03:20:42;22.48;;;2.92;;
42662;SDS011;44330;51.360;6.686;2023-02-25T03:23:16;19.40;;;3.17;;
42662;SDS011;44330;51.360;6.686;2023-02-25T03:25:46;17.67;;;2.42;;
42662;SDS011;44330;51.360;6.686;2023-02-25T03:28:31;22.33;;;3.10;;
42662;SDS011;44330;51.360;6.686;2023-02-25T03:31:00;23.05;;;3.08;;
42662;SDS011;44330;51.360;6.686;2023-02-25T03:33:45;15.43;;;2.78;;
42662;SDS011;44330;51.360;6.686;2023-02-25T03:36:22;19.27;;;3.03;;
42662;SDS011;44330;51.360;6.686;2023-02-25T03:38:54;26.85;;;3.00;;
42662;SDS011;44330;51.360;6.686;2023-02-25T03:41:24;24.20;;;3.00;;
42662;SDS011;44330;51.360;6.686;2023-02-25T03:43:54;18.23;;;3.35;;
42662;SDS011;44330;51.360;6.686;2023-02-25T03:46:21;25.58;;;2.92;;
42662;SDS011;44330;51.360;6.686;2023-02-25T03:48:48;20.55;;;2.30;;
42662;SDS011;44330;51.360;6.686;2023-02-25T03:51:17;23.88;;;2.75;;
42662;SDS011;44330;51.360;6.686;2023-02-25T03:53:47;15.45;;;2.80;;
42662;SDS011;44330;51.360;6.686;2023-02-25T03:56:14;23.73;;;3.00;;
42662;SDS011;44330;51.360;6.686;2023-02-25T03:58:41;20.83;;;2.88;;
42662;SDS011;44330;51.360;6.686;2023-02-25T04:01:12;17.67;;;2.92;;
42662;SDS011;44330;51.360;6.686;2023-02-25T04:03:45;13.70;;;2.72;;
42662;SDS011;44330;51.360;6.686;2023-02-25T04:06:11;15.15;;;2.08;;
42662;SDS011;44330;51.360;6.686;2023-02-25T04:08:38;14.40;;;2.05;;
42662;SDS011;44330;51.360;6.686;2023-02-25T04:11:04;10.13;;;2.42;;
42662;SDS011;44330;51.360;6.686;2023-02-25T04:13:30;18.73;;;3.60;;
42662;SDS011;44330;51.360;6.686;2023-02-25T04:15:55;14.50;;;2.55;;
42662;SDS011;44330;51.360;6.686;2023-02-25T04:18:21;21.90;;;2.53;;
42662;SDS011;44330;51.360;6.686;2023-02-25T04:20:48;19.33;;;2.55;;
42662;SDS011;44330;51.360;6.686;2023-02-25T04:23:14;20.08;;;2.85;;
42662;SDS011;44330;51.360;6.686;2023-02-25T04:25:40;19.88;;;2.70;;
42662;SDS011;44330;51.360;6.686;2023-02-25T04:28:07;14.80;;;2.67;;
42662;SDS011;44330;51.360;6.686;2023-02-25T04:30:33;14.38;;;2.55;;
42662;SDS011;44330;51.360;6.686;2023-02-25T04:32:59;16.30;;;2.13;;
42662;SDS011;44330;51.360;6.686;2023-02-25T04:35:26;17.15;;;3.08;;
42662;SDS011;44330;51.360;6.686;2023-02-25T04:37:51;16.05;;;2.53;;
42662;SDS011;44330;51.360;6.686;2023-02-25T04:40:18;16.52;;;2.70;;
42662;SDS011;44330;51.360;6.686;2023-02-25T04:42:45;12.35;;;2.28;;
42662;SDS011;44330;51.360;6.686;2023-02-25T04:45:12;21.08;;;3.05;;
42662;SDS011;44330;51.360;6.686;2023-02-25T04:47:39;21.52;;;3.13;;
42662;SDS011;44330;51.360;6.686;2023-02-25T04:50:05;22.92;;;2.65;;
42662;SDS011;44330;51.360;6.686;2023-02-25T04:52:32;17.08;;;2.45;;
42662;SDS011;44330;51.360;6.686;2023-02-25T04:54:58;19.08;;;2.60;;
42662;SDS011;44330;51.360;6.686;2023-02-25T04:57:23;21.40;;;2.42;;
42662;SDS011;44330;51.360;6.686;2023-02-25T04:59:49;22.50;;;3.05;;
42662;SDS011;44330;51.360;6.686;2023-02-25T05:02:15;16.38;;;2.40;;
42662;SDS011;44330;51.360;6.686;2023-02-25T05:04:41;20.23;;;2.53;;
42662;SDS011;44330;51.360;6.686;2023-02-25T05:07:09;17.38;;;2.92;;
42662;SDS011;44330;51.360;6.686;2023-02-25T05:09:35;25.33;;;3.95;;
42662;SDS011;44330;51.360;6.686;2023-02-25T05:12:00;20.15;;;3.53;;
42662;SDS011;44330;51.360;6.686;2023-02-25T05:14:27;22.02;;;3.08;;
42662;SDS011;44330;51.360;6.686;2023-02-25T05:16:52;16.80;;;2.55;;
42662;SDS011;44330;51.360;6.686;2023-02-25T05:19:19;22.70;;;3.40;;
42662;SDS011;44330;51.360;6.686;2023-02-25T05:21:46;15.32;;;2.65;;
42662;SDS011;44330;51.360;6.686;2023-02-25T05:24:12;22.15;;;2.83;;
42662;SDS011;44330;51.360;6.686;2023-02-25T05:26:38;22.13;;;2.35;;
42662;SDS011;44330;51.360;6.686;2023-02-25T05:29:03;22.20;;;3.10;;
42662;SDS011;44330;51.360;6.686;2023-02-25T05:31:29;16.95;;;2.65;;
42662;SDS011;44330;51.360;6.686;2023-02-25T05:33:55;18.40;;;3.40;;
42662;SDS011;44330;51.360;6.686;2023-02-25T05:36:20;20.95;;;2.20;;
42662;SDS011;44330;51.360;6.686;2023-02-25T05:38:47;20.48;;;2.92;;
42662;SDS011;44330;51.360;6.686;2023-02-25T05:41:13;20.75;;;2.80;;
42662;SDS011;44330;51.360;6.686;2023-02-25T05:43:40;27.27;;;3.42;;
42662;SDS011;44330;51.360;6.686;2023-02-25T05:46:06;20.20;;;2.60;;
42662;SDS011;44330;51.360;6.686;2023-02-25T05:48:37;22.17;;;3.88;;
42662;SDS011;44330;51.360;6.686;2023-02-25T05:51:05;25.50;;;3.58;;
42662;SDS011;44330;51.360;6.686;2023-02-25T05:53:32;24.45;;;3.40;;
42662;SDS011;44330;51.360;6.686;2023-02-25T05:56:02;18.13;;;2.78;;
42662;SDS011;44330;51.360;6.686;2023-02-25T05:58:28;16.98;;;2.50;;
42662;SDS011;44330;51.360;6.686;2023-02-25T06:00:54;29.75;;;3.35;;
42662;SDS011;44330;51.360;6.686;2023-02-25T06:03:20;30.58;;;3.28;;
42662;SDS011;44330;51.360;6.686;2023-02-25T06:05:45;18.20;;;2.72;;
42662;SDS011;44330;51.360;6.686;2023-02-25T06:08:11;24.73;;;3.10;;
42662;SDS011;44330;51.360;6.686;2023-02-25T06:10:38;18.45;;;3.15;;
42662;SDS011;44330;51.360;6.686;2023-02-25T06:13:07;37.53;;;4.15;;
42662;SDS011;44330;51.360;6.686;2023-02-25T06:15:38;16.85;;;2.47;;
42662;SDS011;44330;51.360;6.686;2023-02-25T06:18:04;19.65;;;3.35;;
42662;SDS011;44330;51.360;6.686;2023-02-25T06:20:30;21.92;;;4.18;;
42662;SDS011;44330;51.360;6.686;2023-02-25T06:22:56;24.05;;;3.58;;
42662;SDS011;44330;51.360;6.686;2023-02-25T06:25:22;16.17;;;2.08;;
42662;SDS011;44330;51.360;6.686;2023-02-25T06:27:50;20.55;;;3.30;;
42662;SDS011;44330;51.360;6.686;2023-02-25T06:30:18;25.42;;;3.35;;
42662;SDS011;44330;51.360;6.686;2023-02-25T06:32:44;24.23;;;2.88;;
42662;SDS011;44330;51.360;6.686;2023-02-25T06:35:09;14.85;;;2.30;;
42662;SDS011;44330;51.360;6.686;2023-02-25T06:37:35;19.10;;;2.67;;
42662;SDS011;44330;51.360;6.686;2023-02-25T06:40:00;18.85;;;2.20;;
42662;SDS011;44330;51.360;6.686;2023-02-25T06:42:26;12.85;;;2.45;;
42662;SDS011;44330;51.360;6.686;2023-02-25T06:44:52;16.33;;;2.33;;
42662;SDS011;44330;51.360;6.686;2023-02-25T06:47:17;17.25;;;2.22;;
42662;SDS011;44330;51.360;6.686;2023-02-25T06:49:43;19.75;;;3.17;;
42662;SDS011;44330;51.360;6.686;2023-02-25T06:52:08;22.45;;;2.20;;
42662;SDS011;44330;51.360;6.686;2023-02-25T06:54:34;25.52;;;3.53;;
42662;SDS011;44330;51.360;6.686;2023-02-25T06:56:59;19.55;;;2.63;;
42662;SDS011;44330;51.360;6.686;2023-02-25T06:59:28;10.52;;;2.20;;
42662;SDS011;44330;51.360;6.686;2023-02-25T07:01:53;17.03;;;2.70;;
42662;SDS011;44330;51.360;6.686;2023-02-25T07:04:19;26.48;;;3.22;;
42662;SDS011;44330;51.360;6.686;2023-02-25T07:06:44;22.10;;;2.75;;
42662;SDS011;44330;51.360;6.686;2023-02-25T07:09:10;19.45;;;2.47;;
42662;SDS011;44330;51.360;6.686;2023-02-25T07:11:35;18.30;;;2.50;;
42662;SDS011;44330;51.360;6.686;2023-02-25T07:14:02;16.20;;;2.22;;
42662;SDS011;44330;51.360;6.686;2023-02-25T07:16:28;29.83;;;2.72;;
42662;SDS011;44330;51.360;6.686;2023-02-25T07:18:54;19.60;;;3.05;;
42662;SDS011;44330;51.360;6.686;2023-02-25T07:21:21;25.00;;;2.63;;
42662;SDS011;44330;51.360;6.686;2023-02-25T07:23:47;28.33;;;4.70;;
42662;SDS011;44330;51.360;6.686;2023-02-25T07:26:13;21.90;;;2.67;;
42662;SDS011;44330;51.360;6.686;2023-02-25T07:28:39;18.95;;;3.15;;
42662;SDS011;44330;51.360;6.686;2023-02-25T07:31:10;31.00;;;5.65;;
42662;SDS011;44330;51.360;6.686;2023-02-25T07:33:37;22.05;;;3.00;;
42662;SDS011;44330;51.360;6.686;2023-02-25T07:36:03;22.98;;;3.63;;
42662;SDS011;44330;51.360;6.686;2023-02-25T07:38:29;23.20;;;3.35;;
42662;SDS011;44330;51.360;6.686;2023-02-25T07:40:54;31.48;;;4.15;;
42662;SDS011;44330;51.360;6.686;2023-02-25T07:43:20;20.75;;;2.78;;
42662;SDS011;44330;51.360;6.686;2023-02-25T07:45:47;24.63;;;4.07;;
42662;SDS011;44330;51.360;6.686;2023-02-25T07:48:13;26.20;;;3.97;;
42662;SDS011;44330;51.360;6.686;2023-02-25T07:50:39;31.08;;;4.80;;
42662;SDS011;44330;51.360;6.686;2023-02-25T07:53:05;27.40;;;4.03;;
42662;SDS011;44330;51.360;6.686;2023-02-25T07:55:30;15.80;;;3.53;;
42662;SDS011;44330;51.360;6.686;2023-02-25T07:57:56;23.02;;;3.30;;
42662;SDS011;44330;51.360;6.686;2023-02-25T08:00:21;22.80;;;3.13;;
42662;SDS011;44330;51.360;6.686;2023-02-25T08:02:47;20.77;;;4.18;;
42662;SDS011;44330;51.360;6.686;2023-02-25T08:05:13;31.02;;;4.10;;
42662;SDS011;44330;51.360;6.686;2023-02-25T08:07:38;32.42;;;3.97;;
42662;SDS011;44330;51.360;6.686;2023-02-25T08:10:04;25.40;;;3.67;;
42662;SDS011;44330;51.360;6.686;2023-02-25T08:12:30;20.27;;;3.78;;
42662;SDS011;44330;51.360;6.686;2023-02-25T08:14:56;19.42;;;3.00;;
42662;SDS011;44330;51.360;6.686;2023-02-25T08:17:24;21.45;;;3.50;;
42662;SDS011;44330;51.360;6.686;2023-02-25T08:19:49;31.45;;;5.13;;
42662;SDS011;44330;51.360;6.686;2023-02-25T08:22:16;35.80;;;6.43;;
42662;SDS011;44330;51.360;6.686;2023-02-25T08:24:41;30.83;;;8.10;;
42662;SDS011;44330;51.360;6.686;2023-02-25T08:27:07;17.77;;;3.58;;
42662;SDS011;44330;51.360;6.686;2023-02-25T08:29:34;19.33;;;2.83;;
42662;SDS011;44330;51.360;6.686;2023-02-25T08:32:00;24.92;;;3.10;;
42662;SDS011;44330;51.360;6.686;2023-02-25T08:34:25;29.23;;;4.32;;
42662;SDS011;44330;51.360;6.686;2023-02-25T08:36:51;22.05;;;2.60;;
42662;SDS011;44330;51.360;6.686;2023-02-25T08:39:17;18.00;;;3.45;;
42662;SDS011;44330;51.360;6.686;2023-02-25T08:41:42;32.03;;;4.45;;
42662;SDS011;44330;51.360;6.686;2023-02-25T08:44:09;24.55;;;4.32;;
42662;SDS011;44330;51.360;6.686;2023-02-25T08:46:35;19.63;;;3.72;;
42662;SDS011;44330;51.360;6.686;2023-02-25T08:49:02;22.48;;;3.78;;
42662;SDS011;44330;51.360;6.686;2023-02-25T08:51:28;16.98;;;2.92;;
42662;SDS011;44330;51.360;6.686;2023-02-25T08:53:58;23.05;;;4.47;;
42662;SDS011;44330;51.360;6.686;2023-02-25T08:56:25;31.90;;;7.22;;
42662;SDS011;44330;51.360;6.686;2023-02-25T08:58:51;44.40;;;12.35;;
42662;SDS011;44330;51.360;6.686;2023-02-25T09:01:18;44.17;;;14.75;;
42662;SDS011;44330;51.360;6.686;2023-02-25T09:03:45;39.13;;;15.13;;
42662;SDS011;44330;51.360;6.686;2023-02-25T09:06:22;32.88;;;9.18;;
42662;SDS011;44330;51.360;6.686;2023-02-25T09:08:50;40.05;;;10.82;;
42662;SDS011;44330;51.360;6.686;2023-02-25T09:11:17;31.65;;;9.80;;
42662;SDS011;44330;51.360;6.686;2023-02-25T09:13:43;30.92;;;8.23;;
42662;SDS011;44330;51.360;6.686;2023-02-25T09:16:09;23.13;;;7.50;;
42662;SDS011;44330;51.360;6.686;2023-02-25T09:18:35;19.38;;;5.15;;
42662;SDS011;44330;51.360;6.686;2023-02-25T09:21:01;24.60;;;3.35;;
42662;SDS011;44330;51.360;6.686;2023-02-25T09:23:27;22.90;;;3.05;;
42662;SDS011;44330;51.360;6.686;2023-02-25T09:25:52;27.52;;;3.85;;
42662;SDS011;44330;51.360;6.686;2023-02-25T09:28:18;17.85;;;2.60;;
42662;SDS011;44330;51.360;6.686;2023-02-25T09:30:44;18.58;;;2.63;;
42662;SDS011;44330;51.360;6.686;2023-02-25T09:33:11;20.38;;;2.53;;
42662;SDS011;44330;51.360;6.686;2023-02-25T09:35:37;19.30;;;2.90;;
42662;SDS011;44330;51.360;6.686;2023-02-25T09:38:04;21.67;;;2.47;;
42662;SDS011;44330;51.360;6.686;2023-02-25T09:40:30;22.30;;;3.13;;
42662;SDS011;44330;51.360;6.686;2023-02-25T09:43:15;14.48;;;2.15;;
42662;SDS011;44330;51.360;6.686;2023-02-25T09:45:50;22.85;;;3.13;;
42662;SDS011;44330;51.360;6.686;2023-02-25T09:48:18;16.67;;;2.40;;
42662;SDS011;44330;51.360;6.686;2023-02-25T09:50:50;21.50;;;2.67;;
42662;SDS011;44330;51.360;6.686;2023-02-25T09:53:22;14.75;;;2.63;;
42662;SDS011;44330;51.360;6.686;2023-02-25T09:56:21;20.63;;;3.22;;
42662;SDS011;44330;51.360;6.686;2023-02-25T09:58:55;19.88;;;2.80;;
42662;SDS011;44330;51.360;6.686;2023-02-25T10:01:24;11.98;;;1.95;;
42662;SDS011;44330;51.360;6.686;2023-02-25T10:05:03;17.42;;;2.50;;
42662;SDS011;44330;51.360;6.686;2023-02-25T10:07:01;9.50;;;1.50;;
42662;SDS011;44330;51.360;6.686;2023-02-25T10:09:47;10.02;;;2.45;;
42662;SDS011;44330;51.360;6.686;2023-02-25T10:12:22;7.82;;;2.95;;
42662;SDS011;44330;51.360;6.686;2023-02-25T10:19:56;13.30;;;4.15;;
42662;SDS011;44330;51.360;6.686;2023-02-25T10:22:52;16.25;;;3.90;;
42662;SDS011;44330;51.360;6.686;2023-02-25T10:25:28;14.00;;;4.82;;
42662;SDS011;44330;51.360;6.686;2023-02-25T10:28:01;11.98;;;3.92;;
42662;SDS011;44330;51.360;6.686;2023-02-25T10:30:33;10.60;;;4.40;;
42662;SDS011;44330;51.360;6.686;2023-02-25T10:33:03;12.05;;;5.18;;
42662;SDS011;44330;51.360;6.686;2023-02-25T10:35:36;10.98;;;5.93;;
42662;SDS011;44330;51.360;6.686;2023-02-25T10:38:04;23.83;;;9.38;;
42662;SDS011;44330;51.360;6.686;2023-02-25T10:40:30;20.17;;;8.85;;
42662;SDS011;44330;51.360;6.686;2023-02-25T10:43:00;22.60;;;8.63;;
42662;SDS011;44330;51.360;6.686;2023-02-25T10:45:33;23.75;;;8.77;;
42662;SDS011;44330;51.360;6.686;2023-02-25T10:48:11;23.40;;;8.98;;
42662;SDS011;44330;51.360;6.686;2023-02-25T10:50:41;29.60;;;9.40;;
42662;SDS011;44330;51.360;6.686;2023-02-25T11:00:59;16.52;;;4.93;;
42662;SDS011;44330;51.360;6.686;2023-02-25T11:03:30;10.63;;;3.20;;
42662;SDS011;44330;51.360;6.686;2023-02-25T11:06:08;11.77;;;3.45;;
42662;SDS011;44330;51.360;6.686;2023-02-25T11:08:46;15.15;;;2.45;;
42662;SDS011;44330;51.360;6.686;2023-02-25T11:11:25;14.63;;;2.10;;
42662;SDS011;44330;51.360;6.686;2023-02-25T11:16:32;5.55;;;1.10;;
42662;SDS011;44330;51.360;6.686;2023-02-25T11:19:01;4.93;;;1.15;;
42662;SDS011;44330;51.360;6.686;2023-02-25T11:21:39;13.30;;;1.45;;
42662;SDS011;44330;51.360;6.686;2023-02-25T11:24:11;8.98;;;1.67;;
42662;SDS011;44330;51.360;6.686;2023-02-25T11:26:44;5.82;;;1.15;;
42662;SDS011;44330;51.360;6.686;2023-02-25T11:29:20;5.03;;;1.23;;
42662;SDS011;44330;51.360;6.686;2023-02-25T11:31:50;6.47;;;1.92;;
42662;SDS011;44330;51.360;6.686;2023-02-25T11:34:23;12.80;;;1.70;;
42662;SDS011;44330;51.360;6.686;2023-02-25T11:36:52;7.63;;;1.40;;
42662;SDS011;44330;51.360;6.686;2023-02-25T11:39:19;7.90;;;1.30;;
42662;SDS011;44330;51.360;6.686;2023-02-25T11:41:54;8.23;;;1.90;;
42662;SDS011;44330;51.360;6.686;2023-02-25T11:44:42;10.95;;;1.58;;
42662;SDS011;44330;51.360;6.686;2023-02-25T11:52:36;8.55;;;1.08;;
42662;SDS011;44330;51.360;6.686;2023-02-25T11:55:13;5.95;;;1.10;;
42662;SDS011;44330;51.360;6.686;2023-02-25T12:00:29;3.83;;;1.20;;
42662;SDS011;44330;51.360;6.686;2023-02-25T12:06:19;8.20;;;1.80;;
42662;SDS011;44330;51.360;6.686;2023-02-25T12:14:34;6.38;;;1.50;;
42662;SDS011;44330;51.360;6.686;2023-02-25T12:26:07;9.05;;;1.30;;
42662;SDS011;44330;51.360;6.686;2023-02-25T12:45:32;10.43;;;1.73;;
42662;SDS011;44330;51.360;6.686;2023-02-25T12:56:47;13.43;;;2.22;;
42662;SDS011;44330;51.360;6.686;2023-02-25T12:59:43;11.77;;;1.90;;
42662;SDS011;44330;51.360;6.686;2023-02-25T13:10:43;7.88;;;1.55;;
42662;SDS011;44330;51.360;6.686;2023-02-25T13:24:45;4.72;;;1.40;;
42662;SDS011;44330;51.360;6.686;2023-02-25T13:27:48;8.00;;;1.50;;
42662;SDS011;44330;51.360;6.686;2023-02-25T13:30:40;7.18;;;1.45;;
42662;SDS011;44330;51.360;6.686;2023-02-25T13:52:12;6.32;;;1.45;;
42662;SDS011;44330;51.360;6.686;2023-02-25T14:03:21;7.38;;;1.13;;
42662;SDS011;44330;51.360;6.686;2023-02-25T14:14:13;9.02;;;1.23;;
42662;SDS011;44330;51.360;6.686;2023-02-25T14:16:53;5.78;;;1.67;;
42662;SDS011;44330;51.360;6.686;2023-02-25T14:22:42;6.05;;;1.25;;
42662;SDS011;44330;51.360;6.686;2023-02-25T14:25:17;2.22;;;0.98;;
42662;SDS011;44330;51.360;6.686;2023-02-25T14:28:04;4.95;;;1.70;;
42662;SDS011;44330;51.360;6.686;2023-02-25T14:30:52;2.65;;;1.00;;
42662;SDS011;44330;51.360;6.686;2023-02-25T14:47:39;4.70;;;0.70;;
42662;SDS011;44330;51.360;6.686;2023-02-25T14:50:15;4.25;;;0.73;;
42662;SDS011;44330;51.360;6.686;2023-02-25T15:00:50;5.80;;;0.82;;
42662;SDS011;44330;51.360;6.686;2023-02-25T15:06:50;5.47;;;0.95;;
42662;SDS011;44330;51.360;6.686;2023-02-25T15:09:37;4.88;;;1.10;;
42662;SDS011;44330;51.360;6.686;2023-02-25T15:20:56;3.28;;;0.70;;
42662;SDS011;44330;51.360;6.686;2023-02-25T15:23:21;5.35;;;1.10;;
42662;SDS011;44330;51.360;6.686;2023-02-25T15:28:49;4.30;;;1.17;;
42662;SDS011;44330;51.360;6.686;2023-02-25T15:31:26;3.60;;;1.00;;
42662;SDS011;44330;51.360;6.686;2023-02-25T15:34:23;6.15;;;0.90;;
42662;SDS011;44330;51.360;6.686;2023-02-25T15:42:07;6.72;;;1.00;;
42662;SDS011;44330;51.360;6.686;2023-02-25T15:44:42;8.02;;;0.95;;
42662;SDS011;44330;51.360;6.686;2023-02-25T15:47:10;4.55;;;0.73;;
42662;SDS011;44330;51.360;6.686;2023-02-25T15:49:52;2.72;;;0.98;;
42662;SDS011;44330;51.360;6.686;2023-02-25T15:52:48;2.65;;;0.50;;
42662;SDS011;44330;51.360;6.686;2023-02-25T15:55:39;2.95;;;0.90;;
42662;SDS011;44330;51.360;6.686;2023-02-25T16:03:25;3.10;;;0.73;;
42662;SDS011;44330;51.360;6.686;2023-02-25T16:11:17;3.45;;;1.02;;
42662;SDS011;44330;51.360;6.686;2023-02-25T16:13:47;4.55;;;0.90;;
42662;SDS011;44330;51.360;6.686;2023-02-25T16:16:13;5.80;;;1.13;;
42662;SDS011;44330;51.360;6.686;2023-02-25T16:18:42;3.83;;;1.00;;
42662;SDS011;44330;51.360;6.686;2023-02-25T16:23:42;8.95;;;1.95;;
42662;SDS011;44330;51.360;6.686;2023-02-25T16:28:49;7.80;;;1.27;;
42662;SDS011;44330;51.360;6.686;2023-02-25T16:31:51;2.58;;;0.93;;
42662;SDS011;44330;51.360;6.686;2023-02-25T16:37:12;4.07;;;0.90;;
42662;SDS011;44330;51.360;6.686;2023-02-25T16:39:45;5.80;;;1.15;;
42662;SDS011;44330;51.360;6.686;2023-02-25T16:42:12;4.40;;;0.90;;
42662;SDS011;44330;51.360;6.686;2023-02-25T16:44:43;8.35;;;1.42;;
42662;SDS011;44330;51.360;6.686;2023-02-25T16:47:20;6.93;;;1.17;;
42662;SDS011;44330;51.360;6.686;2023-02-25T16:49:48;4.90;;;0.98;;
42662;SDS011;44330;51.360;6.686;2023-02-25T16:55:03;1.63;;;0.70;;
42662;SDS011;44330;51.360;6.686;2023-02-25T16:57:32;3.20;;;1.23;;
42662;SDS011;44330;51.360;6.686;2023-02-25T17:00:33;4.18;;;0.80;;
42662;SDS011;44330;51.360;6.686;2023-02-25T17:02:52;4.63;;;1.13;;
42662;SDS011;44330;51.360;6.686;2023-02-25T17:05:29;10.45;;;2.45;;
42662;SDS011;44330;51.360;6.686;2023-02-25T17:08:01;3.90;;;1.13;;
42662;SDS011;44330;51.360;6.686;2023-02-25T17:12:59;4.05;;;1.23;;
42662;SDS011;44330;51.360;6.686;2023-02-25T17:15:33;10.73;;;4.00;;
42662;SDS011;44330;51.360;6.686;2023-02-25T17:20:51;6.60;;;1.75;;
42662;SDS011;44330;51.360;6.686;2023-02-25T17:23:27;12.60;;;1.95;;
42662;SDS011;44330;51.360;6.686;2023-02-25T17:25:54;5.68;;;1.65;;
42662;SDS011;44330;51.360;6.686;2023-02-25T17:28:22;8.75;;;1.80;;
42662;SDS011;44330;51.360;6.686;2023-02-25T17:31:10;10.95;;;2.20;;
42662;SDS011;44330;51.360;6.686;2023-02-25T17:33:50;4.40;;;1.85;;
42662;SDS011;44330;51.360;6.686;2023-02-25T17:36:25;5.93;;;1.42;;
42662;SDS011;44330;51.360;6.686;2023-02-25T17:39:04;8.70;;;1.55;;
42662;SDS011;44330;51.360;6.686;2023-02-25T17:41:32;9.35;;;2.40;;
42662;SDS011;44330;51.360;6.686;2023-02-25T17:43:58;11.02;;;3.63;;
42662;SDS011;44330;51.360;6.686;2023-02-25T17:46:28;8.38;;;3.13;;
42662;SDS011;44330;51.360;6.686;2023-02-25T17:49:47;8.40;;;3.25;;
42662;SDS011;44330;51.360;6.686;2023-02-25T17:51:56;6.03;;;2.13;;
42662;SDS011;44330;51.360;6.686;2023-02-25T17:54:24;8.02;;;1.80;;
42662;SDS011;44330;51.360;6.686;2023-02-25T17:56:58;5.10;;;1.60;;
42662;SDS011;44330;51.360;6.686;2023-02-25T17:59:39;15.20;;;4.00;;
42662;SDS011;44330;51.360;6.686;2023-02-25T18:05:13;8.48;;;1.92;;
42662;SDS011;44330;51.360;6.686;2023-02-25T18:10:47;11.15;;;3.25;;
42662;SDS011;44330;51.360;6.686;2023-02-25T18:15:45;11.45;;;2.65;;
42662;SDS011;44330;51.360;6.686;2023-02-25T18:18:17;13.10;;;4.30;;
42662;SDS011;44330;51.360;6.686;2023-02-25T18:20:48;9.40;;;3.50;;
42662;SDS011;44330;51.360;6.686;2023-02-25T18:23:24;10.38;;;2.70;;
42662;SDS011;44330;51.360;6.686;2023-02-25T18:28:36;10.82;;;2.72;;
42662;SDS011;44330;51.360;6.686;2023-02-25T18:31:02;9.57;;;2.20;;
42662;SDS011;44330;51.360;6.686;2023-02-25T18:33:28;20.70;;;8.68;;
42662;SDS011;44330;51.360;6.686;2023-02-25T18:35:54;15.40;;;3.50;;
42662;SDS011;44330;51.360;6.686;2023-02-25T18:38:23;23.05;;;6.95;;
42662;SDS011;44330;51.360;6.686;2023-02-25T18:40:50;27.15;;;9.45;;
42662;SDS011;44330;51.360;6.686;2023-02-25T18:43:18;16.83;;;5.72;;